Terminal Aerodrome Forecast
Issued by NWS Dallas/Fort Worth, TX

Home | Current Version | Previous Version | Text Only | Print | Product List | Glossary On
Versions: 1 2 3 4 5 6 7 8 9 10 11 12 13 14 15 16 17 18 19 20 21 22 23 24 25 26
369
FTUS44 KFWD 191307 AAA
TAFACT
TAF AMD
KACT 191307Z 1913/2012 13008KT 5SM BR OVC007
     FM191600 14011KT P6SM OVC015
     FM191900 14011KT P6SM VCSH BKN025 BKN250
     FM192100 15011KT P6SM VCSH BKN035 BKN220
     FM192300 14011KT P6SM BKN035 BKN050
     FM200300 15010KT P6SM BKN015 OVC100
     FM200600 17010KT 4SM TSRA BR BKN010 OVC015CB
     FM201000 23010KT 4SM SHRA BR OVC015=

USA.gov is the U.S. government's official web portal to all federal, state and local government web resources and services.